createdAt,value
2023-11-30T00:00:17.565Z,99079.13
2023-11-30T00:02:44.198Z,99080.84
2023-11-30T00:05:10.762Z,99069.19
2023-11-30T00:07:37.379Z,99061.47
2023-11-30T00:10:04.611Z,99056.28
2023-11-30T00:12:31.157Z,99053.47
2023-11-30T00:14:58.081Z,99055.97
2023-11-30T00:17:24.549Z,99062.78
2023-11-30T00:19:51.089Z,99065.38
2023-11-30T00:22:17.795Z,99064.59
2023-11-30T00:24:44.248Z,99066.41
2023-11-30T00:27:10.907Z,99065.56
2023-11-30T00:29:37.361Z,99066.38
2023-11-30T00:32:04.312Z,99059.78
2023-11-30T00:34:30.793Z,99057.28
2023-11-30T00:36:57.259Z,99065.91
2023-11-30T00:39:23.887Z,99055.47
2023-11-30T00:41:50.394Z,99051.22
2023-11-30T00:44:19.430Z,99053.03
2023-11-30T00:46:46.075Z,99060.66
2023-11-30T00:49:12.906Z,99060.59
2023-11-30T00:51:39.368Z,99060.66
2023-11-30T00:54:06.278Z,99057.22
2023-11-30T00:56:32.742Z,99039.84
2023-11-30T00:58:59.581Z,99042.34
2023-11-30T01:01:26.100Z,99043.19
2023-11-30T01:03:52.743Z,99036.56
2023-11-30T01:06:19.432Z,99037.25
2023-11-30T01:08:46.067Z,99034.53
2023-11-30T01:11:12.554Z,99034.53
2023-11-30T01:13:39.328Z,99043.25
2023-11-30T01:16:06.585Z,99048.31
2023-11-30T01:18:33.874Z,99043.25
2023-11-30T01:21:00.614Z,99028.84
2023-11-30T01:23:27.091Z,99023.06
2023-11-30T01:25:53.602Z,99025.06
2023-11-30T01:28:20.369Z,99029.81
2023-11-30T01:30:46.896Z,99033.13
2023-11-30T01:33:13.537Z,99031.78
2023-11-30T01:35:40.108Z,99026.50
2023-11-30T01:38:06.649Z,99025.38
2023-11-30T01:40:33.329Z,99026.94
2023-11-30T01:42:59.912Z,99029.59
2023-11-30T01:45:26.600Z,99016.56
2023-11-30T01:47:53.517Z,99012.25
2023-11-30T01:50:21.422Z,99003.69
2023-11-30T01:52:48.052Z,98997.13
2023-11-30T01:55:15.040Z,98997.31
2023-11-30T01:57:42.778Z,98998.06
2023-11-30T02:00:10.896Z,98990.84
2023-11-30T02:02:40.179Z,98988.28
2023-11-30T02:05:07.553Z,98983.06
2023-11-30T02:07:34.160Z,98990.72
2023-11-30T02:10:00.761Z,98991.50
2023-11-30T02:12:27.543Z,98988.16
2023-11-30T02:14:54.251Z,98985.72
2023-11-30T02:17:20.822Z,98988.56
2023-11-30T02:19:47.327Z,98988.16
2023-11-30T02:22:15.755Z,98982.03
2023-11-30T02:24:42.451Z,98977.56
2023-11-30T02:27:09.107Z,98979.13
2023-11-30T02:29:36.058Z,98974.88
2023-11-30T02:32:02.592Z,98964.75
2023-11-30T02:34:29.322Z,98962.88
2023-11-30T02:36:55.851Z,98962.06
2023-11-30T02:39:22.463Z,98959.50
2023-11-30T02:41:49.082Z,98959.38
2023-11-30T02:44:15.593Z,98959.25
2023-11-30T02:46:42.389Z,98960.94
2023-11-30T02:49:09.028Z,98960.84
2023-11-30T02:51:36.590Z,98950.56
2023-11-30T02:54:03.510Z,98947.84
2023-11-30T02:56:30.001Z,98948.75
2023-11-30T02:58:56.660Z,98950.44
2023-11-30T03:01:25.085Z,98947.97
2023-11-30T03:03:53.162Z,98948.66
2023-11-30T03:06:19.742Z,98950.28
2023-11-30T03:08:48.005Z,98943.59
2023-11-30T03:11:15.492Z,98941.78
2023-11-30T03:13:42.105Z,98952.78
2023-11-30T03:16:09.117Z,98954.53
2023-11-30T03:18:40.027Z,98956.22
2023-11-30T03:21:15.948Z,98945.91
2023-11-30T03:23:42.669Z,98943.34
2023-11-30T03:26:09.342Z,98947.56
2023-11-30T03:28:35.828Z,98941.59
2023-11-30T03:31:02.619Z,98937.34
2023-11-30T03:33:29.371Z,98935.78
2023-11-30T03:35:56.959Z,98944.44
2023-11-30T03:38:23.690Z,98928.97
2023-11-30T03:40:50.148Z,98938.38
2023-11-30T03:43:17.166Z,98935.16
2023-11-30T03:45:43.821Z,98931.56
2023-11-30T03:48:10.562Z,98928.94
2023-11-30T03:50:37.266Z,98934.97
2023-11-30T03:53:03.866Z,98924.81
2023-11-30T03:55:30.344Z,98924.13
2023-11-30T03:57:57.031Z,98922.69
2023-11-30T04:00:23.537Z,98927.63
2023-11-30T04:02:50.100Z,98922.47
2023-11-30T04:05:16.790Z,98916.50
2023-11-30T04:07:44.408Z,98912.47
2023-11-30T04:10:11.831Z,98920.72
2023-11-30T04:12:38.407Z,98911.16
2023-11-30T04:15:06.407Z,98916.44
2023-11-30T04:17:32.962Z,98916.44
2023-11-30T04:20:01.191Z,98909.34
2023-11-30T04:22:27.623Z,98911.06
2023-11-30T04:24:54.040Z,98903.31
2023-11-30T04:27:21.107Z,98901.63
2023-11-30T04:29:48.205Z,98894.69
2023-11-30T04:32:15.040Z,98887.75
2023-11-30T04:34:41.998Z,98884.28
2023-11-30T04:37:08.470Z,98884.25
2023-11-30T04:39:35.164Z,98886.97
2023-11-30T04:42:01.957Z,98883.63
2023-11-30T04:44:29.565Z,98879.38
2023-11-30T04:46:56.279Z,98884.44
2023-11-30T04:49:22.736Z,98876.66
2023-11-30T04:51:49.337Z,98880.41
2023-11-30T04:54:16.359Z,98870.81
2023-11-30T04:56:42.893Z,98874.25
2023-11-30T04:59:09.591Z,98868.66
2023-11-30T05:01:37.336Z,98858.31
2023-11-30T05:04:04.268Z,98861.66
2023-11-30T05:06:31.563Z,98855.44
2023-11-30T05:08:58.088Z,98866.84
2023-11-30T05:11:25.145Z,98863.25
2023-11-30T05:13:51.768Z,98869.19
2023-11-30T05:16:18.354Z,98877.81
2023-11-30T05:18:44.833Z,98870.13
2023-11-30T05:21:11.434Z,98865.03
2023-11-30T05:23:38.076Z,98858.09
2023-11-30T05:26:04.876Z,98863.38
2023-11-30T05:28:33.462Z,98873.00
2023-11-30T05:31:00.366Z,98866.78
2023-11-30T05:33:28.181Z,98871.09
2023-11-30T05:35:54.681Z,98876.38
2023-11-30T05:38:21.193Z,98862.63
2023-11-30T05:40:48.009Z,98869.41
2023-11-30T05:43:14.613Z,98872.72
2023-11-30T05:45:41.232Z,98871.03
2023-11-30T05:48:07.755Z,98866.88
2023-11-30T05:50:36.218Z,98864.16
2023-11-30T05:53:02.929Z,98863.22
2023-11-30T05:55:29.366Z,98857.31
2023-11-30T05:57:55.860Z,98851.38
2023-11-30T06:00:23.029Z,98848.25
2023-11-30T06:02:49.773Z,98849.78
2023-11-30T06:05:17.566Z,98836.59
2023-11-30T06:07:46.030Z,98835.72
2023-11-30T06:10:13.036Z,98833.06
2023-11-30T06:12:40.193Z,98833.22
2023-11-30T06:15:07.083Z,98835.22
2023-11-30T06:17:33.615Z,98826.88
2023-11-30T06:20:00.859Z,98831.50
2023-11-30T06:22:28.274Z,98828.16
2023-11-30T06:24:54.750Z,98824.44
2023-11-30T06:27:21.485Z,98815.84
2023-11-30T06:29:48.009Z,98811.44
2023-11-30T06:32:14.562Z,98816.88
2023-11-30T06:34:41.093Z,98803.16
2023-11-30T06:37:07.684Z,98804.03
2023-11-30T06:39:34.318Z,98803.94
2023-11-30T06:42:01.130Z,98805.69
2023-11-30T06:44:27.829Z,98803.19
2023-11-30T06:46:54.401Z,98793.19
2023-11-30T06:49:21.609Z,98785.78
2023-11-30T06:51:48.280Z,98788.03
2023-11-30T06:54:14.879Z,98796.56
2023-11-30T06:56:41.355Z,98798.84
2023-11-30T06:59:07.800Z,98803.34
2023-11-30T07:01:35.586Z,98798.28
2023-11-30T07:04:02.340Z,98796.03
2023-11-30T07:06:29.266Z,98796.88
2023-11-30T07:08:55.901Z,98798.53
2023-11-30T07:11:22.686Z,98791.81
2023-11-30T07:13:49.332Z,98794.41
2023-11-30T07:16:16.056Z,98796.88
2023-11-30T07:18:42.619Z,98801.25
2023-11-30T07:21:14.564Z,98806.38
2023-11-30T07:23:42.572Z,98801.25
2023-11-30T07:26:15.821Z,98809.66
2023-11-30T07:28:43.470Z,98816.25
2023-11-30T07:31:21.095Z,98816.34
2023-11-30T07:33:49.087Z,98810.56
2023-11-30T07:36:16.203Z,98822.44
2023-11-30T07:38:42.710Z,98825.72
2023-11-30T07:41:09.606Z,98818.19
2023-11-30T07:43:36.278Z,98814.66
2023-11-30T07:46:03.119Z,98812.88
2023-11-30T07:48:30.459Z,98813.72
2023-11-30T07:50:57.125Z,98817.38
2023-11-30T07:53:24.494Z,98825.00
2023-11-30T07:55:58.028Z,98826.59
2023-11-30T07:58:25.023Z,98824.16
2023-11-30T08:00:52.857Z,98834.44
2023-11-30T08:03:19.878Z,98836.00
2023-11-30T08:05:46.787Z,98830.66
2023-11-30T08:08:13.806Z,98822.22
2023-11-30T08:10:40.773Z,98820.34
2023-11-30T08:13:07.463Z,98827.81
2023-11-30T08:15:34.383Z,98828.53
2023-11-30T08:18:01.800Z,98843.97
2023-11-30T08:20:28.574Z,98847.41
2023-11-30T08:22:56.052Z,98843.19
2023-11-30T08:25:22.815Z,98840.72
2023-11-30T08:27:54.049Z,98835.19
2023-11-30T08:30:21.501Z,98825.38
2023-11-30T08:32:48.085Z,98814.66
2023-11-30T08:35:14.788Z,98814.28
2023-11-30T08:37:41.408Z,98820.44
2023-11-30T08:40:08.842Z,98827.84
2023-11-30T08:42:36.802Z,98818.88
2023-11-30T08:45:04.078Z,98814.59
2023-11-30T08:47:30.714Z,98805.06
2023-11-30T08:49:57.405Z,98796.56
2023-11-30T08:52:24.220Z,98797.41
2023-11-30T08:54:52.521Z,98801.13
2023-11-30T08:57:20.517Z,98800.94
2023-11-30T08:59:47.390Z,98804.97
2023-11-30T09:02:14.614Z,98805.78
2023-11-30T09:04:41.535Z,98809.94
2023-11-30T09:07:08.617Z,98804.72
2023-11-30T09:09:35.950Z,98806.84
2023-11-30T09:12:03.404Z,98809.97
2023-11-30T09:14:33.388Z,98813.34
2023-11-30T09:17:03.068Z,98802.88
2023-11-30T09:19:29.767Z,98802.69
2023-11-30T09:21:56.270Z,98801.44
2023-11-30T09:24:23.675Z,98805.81
2023-11-30T09:26:52.350Z,98801.72
2023-11-30T09:29:19.222Z,98785.31
2023-11-30T09:31:46.645Z,98785.72
2023-11-30T09:34:13.554Z,98777.81
2023-11-30T09:36:41.358Z,98769.91
2023-11-30T09:39:15.217Z,98770.69
2023-11-30T09:41:41.912Z,98776.03
2023-11-30T09:44:08.366Z,98774.59
2023-11-30T09:46:35.112Z,98770.94
2023-11-30T09:49:04.215Z,98766.88
2023-11-30T09:51:33.466Z,98771.25
2023-11-30T09:54:00.915Z,98767.78
2023-11-30T09:56:28.613Z,98778.97
2023-11-30T09:58:56.469Z,98783.81
2023-11-30T10:01:23.707Z,98783.41
2023-11-30T10:03:50.713Z,98790.59
2023-11-30T10:06:17.689Z,98800.00
2023-11-30T10:08:45.111Z,98794.59
2023-11-30T10:11:13.201Z,98793.97
2023-11-30T10:13:40.250Z,98792.97
2023-11-30T10:16:08.024Z,98786.97
2023-11-30T10:18:35.304Z,98785.97
2023-11-30T10:21:03.355Z,98791.81
2023-11-30T10:23:31.362Z,98777.38
2023-11-30T10:25:58.431Z,98774.44
2023-11-30T10:28:25.113Z,98772.75
2023-11-30T10:30:56.299Z,98766.41
2023-11-30T10:33:25.155Z,98759.97
2023-11-30T10:35:53.553Z,98755.38
2023-11-30T10:38:25.367Z,98756.94
2023-11-30T10:40:56.945Z,98755.72
2023-11-30T10:43:26.404Z,98752.06
2023-11-30T10:45:56.585Z,98744.38
2023-11-30T10:48:25.451Z,98744.81
2023-11-30T10:50:54.808Z,98747.06
2023-11-30T10:53:42.479Z,98751.38
2023-11-30T10:56:14.697Z,98736.59
2023-11-30T10:58:44.388Z,98741.66
2023-11-30T11:01:12.764Z,98734.50
2023-11-30T11:03:47.285Z,98740.38
2023-11-30T11:06:14.254Z,98735.84
2023-11-30T11:08:40.982Z,98738.25
2023-11-30T11:11:12.107Z,98743.09
2023-11-30T11:13:48.320Z,98736.00
2023-11-30T11:16:15.185Z,98726.88
2023-11-30T11:18:43.345Z,98723.97
2023-11-30T11:21:35.557Z,98720.00
2023-11-30T11:24:04.493Z,98724.72
2023-11-30T11:26:48.481Z,98722.75
2023-11-30T11:29:21.430Z,98707.03
2023-11-30T11:31:54.426Z,98711.31
2023-11-30T11:34:21.012Z,98720.81
2023-11-30T11:36:49.503Z,98723.34
2023-11-30T11:39:17.649Z,98722.63
2023-11-30T11:41:48.513Z,98728.88
2023-11-30T11:44:15.758Z,98720.03
2023-11-30T11:46:44.230Z,98721.53
2023-11-30T11:49:11.031Z,98719.56
2023-11-30T11:51:45.879Z,98713.16
2023-11-30T11:54:20.949Z,98706.28
2023-11-30T11:56:53.342Z,98702.59
2023-11-30T11:59:24.535Z,98704.28
2023-11-30T12:01:52.602Z,98704.00
2023-11-30T12:04:26.312Z,98698.13
2023-11-30T12:06:53.067Z,98692.88
2023-11-30T12:09:20.368Z,98691.31
2023-11-30T12:11:49.054Z,98682.44
2023-11-30T12:14:16.729Z,98685.88
2023-11-30T12:16:43.628Z,98678.53
2023-11-30T12:19:10.467Z,98682.41
2023-11-30T12:21:36.936Z,98676.16
2023-11-30T12:24:03.980Z,98674.28
2023-11-30T12:26:30.524Z,98666.28
2023-11-30T12:28:59.149Z,98658.34
2023-11-30T12:31:28.646Z,98655.69
2023-11-30T12:33:56.679Z,98655.53
2023-11-30T12:36:23.808Z,98662.19
2023-11-30T12:38:52.031Z,98665.75
2023-11-30T12:41:18.793Z,98664.69
2023-11-30T12:43:45.422Z,98661.88
2023-11-30T12:46:11.914Z,98658.75
2023-11-30T12:48:38.550Z,98663.84
2023-11-30T12:51:05.799Z,98672.63
2023-11-30T12:53:32.598Z,98679.69
2023-11-30T12:55:59.222Z,98684.88
2023-11-30T12:58:27.153Z,98688.38
2023-11-30T13:00:54.977Z,98686.81
2023-11-30T13:03:21.854Z,98694.66
2023-11-30T13:05:48.991Z,98692.06
2023-11-30T13:08:15.599Z,98693.88
2023-11-30T13:10:42.119Z,98684.38
2023-11-30T13:13:08.825Z,98684.88
2023-11-30T13:15:35.799Z,98675.34
2023-11-30T13:18:02.615Z,98677.03
2023-11-30T13:20:29.321Z,98677.19
2023-11-30T13:22:55.976Z,98669.34
2023-11-30T13:25:23.225Z,98674.22
2023-11-30T13:27:50.838Z,98676.97
2023-11-30T13:30:18.538Z,98674.16
2023-11-30T13:32:45.961Z,98676.03
2023-11-30T13:35:12.587Z,98675.81
2023-11-30T13:37:39.997Z,98661.97
2023-11-30T13:40:08.517Z,98664.56
2023-11-30T13:42:35.387Z,98651.59
2023-11-30T13:45:02.556Z,98647.00
2023-11-30T13:47:29.711Z,98652.09
2023-11-30T13:49:57.293Z,98650.34
2023-11-30T13:52:24.817Z,98664.91
2023-11-30T13:54:51.264Z,98652.88
2023-11-30T13:57:18.020Z,98664.28
2023-11-30T13:59:44.817Z,98662.78
2023-11-30T14:02:11.505Z,98667.72
2023-11-30T14:04:38.059Z,98665.22
2023-11-30T14:07:05.191Z,98659.34
2023-11-30T14:09:32.835Z,98656.88
2023-11-30T14:11:59.548Z,98659.88
2023-11-30T14:14:26.133Z,98659.72
2023-11-30T14:16:52.946Z,98656.22
2023-11-30T14:19:20.365Z,98667.97
2023-11-30T14:21:47.050Z,98658.34
2023-11-30T14:24:13.916Z,98659.94
2023-11-30T14:26:40.522Z,98663.38
2023-11-30T14:29:07.261Z,98651.66
2023-11-30T14:31:33.727Z,98659.03
2023-11-30T14:34:00.366Z,98663.38
2023-11-30T14:36:27.451Z,98644.91
2023-11-30T14:38:54.223Z,98657.63
2023-11-30T14:41:20.819Z,98660.47
2023-11-30T14:43:47.549Z,98669.91
2023-11-30T14:46:14.153Z,98674.22
2023-11-30T14:48:40.734Z,98675.50
2023-11-30T14:51:09.214Z,98675.97
2023-11-30T14:53:36.393Z,98686.00
2023-11-30T14:56:03.191Z,98694.47
2023-11-30T14:58:29.677Z,98683.97
2023-11-30T15:00:56.464Z,98687.53
2023-11-30T15:03:23.370Z,98688.22
2023-11-30T15:05:49.940Z,98683.22
2023-11-30T15:08:17.705Z,98683.03
2023-11-30T15:10:49.294Z,98682.38
2023-11-30T15:13:15.955Z,98678.94
2023-11-30T15:15:42.392Z,98689.56
2023-11-30T15:18:09.212Z,98696.47
2023-11-30T15:20:36.607Z,98688.22
2023-11-30T15:23:03.241Z,98673.47
2023-11-30T15:25:29.833Z,98670.88
2023-11-30T15:27:56.569Z,98651.16
2023-11-30T15:30:23.116Z,98635.69
2023-11-30T15:32:49.646Z,98638.47
2023-11-30T15:35:16.534Z,98646.69
2023-11-30T15:37:48.998Z,98677.66
2023-11-30T15:40:18.076Z,98697.44
2023-11-30T15:42:46.036Z,98706.28
2023-11-30T15:45:14.163Z,98708.47
2023-11-30T15:47:40.997Z,98699.03
2023-11-30T15:50:08.190Z,98693.91
2023-11-30T15:52:34.766Z,98686.28
2023-11-30T15:55:01.312Z,98677.88
2023-11-30T15:57:27.981Z,98677.94
2023-11-30T15:59:54.580Z,98677.31
2023-11-30T16:02:21.347Z,98672.66
2023-11-30T16:04:47.816Z,98677.91
2023-11-30T16:07:14.521Z,98686.69
2023-11-30T16:09:40.939Z,98692.31
2023-11-30T16:12:07.637Z,98703.44
2023-11-30T16:14:35.044Z,98720.91
2023-11-30T16:17:02.731Z,98720.09
2023-11-30T16:19:29.229Z,98734.88
2023-11-30T16:21:58.120Z,98736.72
2023-11-30T16:24:24.993Z,98740.28
2023-11-30T16:26:55.617Z,98744.81
2023-11-30T16:29:22.404Z,98731.06
2023-11-30T16:31:49.807Z,98721.75
2023-11-30T16:34:19.557Z,98720.94
2023-11-30T16:36:48.544Z,98735.59
2023-11-30T16:39:16.064Z,98737.47
2023-11-30T16:41:43.746Z,98737.69
2023-11-30T16:44:10.234Z,98751.72
2023-11-30T16:46:37.157Z,98745.81
2023-11-30T16:49:04.526Z,98745.78
2023-11-30T16:51:31.644Z,98737.34
2023-11-30T16:53:58.319Z,98732.31
2023-11-30T16:56:25.649Z,98728.09
2023-11-30T16:58:52.971Z,98726.47
2023-11-30T17:01:22.939Z,98718.16
2023-11-30T17:03:49.675Z,98716.75
2023-11-30T17:06:16.467Z,98715.91
2023-11-30T17:08:43.160Z,98705.69
2023-11-30T17:11:09.629Z,98701.63
2023-11-30T17:13:36.080Z,98709.84
2023-11-30T17:16:04.126Z,98710.69
2023-11-30T17:18:31.358Z,98713.25
2023-11-30T17:20:58.104Z,98715.09
2023-11-30T17:23:24.638Z,98714.38
2023-11-30T17:25:51.393Z,98706.78
2023-11-30T17:28:17.921Z,98716.31
2023-11-30T17:30:44.738Z,98702.56
2023-11-30T17:33:11.479Z,98707.06
2023-11-30T17:35:38.289Z,98707.25
2023-11-30T17:38:05.098Z,98715.13
2023-11-30T17:40:31.584Z,98718.72
2023-11-30T17:42:58.232Z,98717.19
2023-11-30T17:45:24.796Z,98719.88
2023-11-30T17:47:51.621Z,98708.00
2023-11-30T17:50:18.240Z,98711.53
2023-11-30T17:52:44.908Z,98722.84
2023-11-30T17:55:11.439Z,98722.13
2023-11-30T17:57:38.007Z,98722.13
2023-11-30T18:00:05.614Z,98725.59
2023-11-30T18:02:38.567Z,98730.00
2023-11-30T18:05:05.646Z,98731.91
2023-11-30T18:07:32.247Z,98732.91
2023-11-30T18:09:58.848Z,98741.63
2023-11-30T18:12:25.639Z,98736.59
2023-11-30T18:14:55.090Z,98699.00
2023-11-30T18:17:21.799Z,98724.88
2023-11-30T18:19:48.402Z,98733.47
2023-11-30T18:22:15.017Z,98715.69
2023-11-30T18:24:41.934Z,98708.03
2023-11-30T18:27:08.468Z,98716.63
2023-11-30T18:29:35.183Z,98710.72
2023-11-30T18:32:02.149Z,98722.81
2023-11-30T18:34:28.731Z,98716.88
2023-11-30T18:36:55.608Z,98716.38
2023-11-30T18:39:22.184Z,98730.59
2023-11-30T18:41:48.862Z,98740.44
2023-11-30T18:44:15.524Z,98726.69
2023-11-30T18:46:42.030Z,98751.72
2023-11-30T18:49:08.649Z,98749.16
2023-11-30T18:51:36.823Z,98745.81
2023-11-30T18:54:03.778Z,98738.19
2023-11-30T18:56:31.061Z,98747.63
2023-11-30T18:58:59.419Z,98738.47
2023-11-30T19:01:27.091Z,98723.72
2023-11-30T19:03:54.115Z,98721.47
2023-11-30T19:06:21.785Z,98729.94
2023-11-30T19:08:49.657Z,98747.34
2023-11-30T19:11:21.726Z,98750.19
2023-11-30T19:13:48.729Z,98752.91
2023-11-30T19:16:17.477Z,98745.66
2023-11-30T19:18:45.660Z,98748.94
2023-11-30T19:21:12.884Z,98761.16
2023-11-30T19:23:39.764Z,98764.53
2023-11-30T19:26:07.340Z,98764.56
2023-11-30T19:28:37.309Z,98762.09
2023-11-30T19:31:04.626Z,98756.97
2023-11-30T19:33:32.624Z,98747.84
2023-11-30T19:35:59.596Z,98753.84
2023-11-30T19:38:27.992Z,98749.47
2023-11-30T19:41:00.586Z,98752.84
2023-11-30T19:43:27.484Z,98755.38
2023-11-30T19:45:55.357Z,98745.03
2023-11-30T19:48:22.739Z,98747.81
2023-11-30T19:50:49.248Z,98748.06
2023-11-30T19:53:16.429Z,98756.38
2023-11-30T19:55:45.802Z,98753.84
2023-11-30T19:58:12.558Z,98759.88
2023-11-30T20:00:41.714Z,98765.09
2023-11-30T20:03:08.817Z,98769.31
2023-11-30T20:05:35.444Z,98764.47
2023-11-30T20:08:02.016Z,98772.91
2023-11-30T20:10:28.801Z,98770.69
2023-11-30T20:12:55.608Z,98780.09
2023-11-30T20:15:22.487Z,98778.56
2023-11-30T20:17:49.656Z,98768.19
2023-11-30T20:20:16.641Z,98785.31
2023-11-30T20:22:43.185Z,98779.56
2023-11-30T20:25:10.137Z,98775.41
2023-11-30T20:27:36.719Z,98774.25
2023-11-30T20:30:03.640Z,98774.78
2023-11-30T20:32:30.391Z,98776.34
2023-11-30T20:35:00.087Z,98778.06
2023-11-30T20:37:29.317Z,98776.19
2023-11-30T20:39:55.932Z,98772.91
2023-11-30T20:42:22.918Z,98776.34
2023-11-30T20:44:52.887Z,98773.69
2023-11-30T20:47:25.317Z,98780.59
2023-11-30T20:49:53.118Z,98783.69
2023-11-30T20:52:19.681Z,98796.31
2023-11-30T20:54:46.396Z,98797.97
2023-11-30T20:57:14.368Z,98804.78
2023-11-30T20:59:42.631Z,98797.97
2023-11-30T21:02:09.632Z,98801.47
2023-11-30T21:04:36.667Z,98791.25
2023-11-30T21:07:03.240Z,98797.47
2023-11-30T21:09:30.075Z,98796.06
2023-11-30T21:11:56.772Z,98787.44
2023-11-30T21:14:23.862Z,98774.94
2023-11-30T21:16:51.396Z,98767.31
2023-11-30T21:19:20.285Z,98758.44
2023-11-30T21:21:48.192Z,98764.28
2023-11-30T21:24:15.177Z,98775.44
2023-11-30T21:26:41.695Z,98786.50
2023-11-30T21:29:08.350Z,98781.38
2023-11-30T21:31:34.831Z,98783.91
2023-11-30T21:34:01.389Z,98792.16
2023-11-30T21:36:27.955Z,98787.72
2023-11-30T21:38:54.530Z,98785.03
2023-11-30T21:41:21.363Z,98781.63
2023-11-30T21:43:48.096Z,98782.66
2023-11-30T21:46:14.782Z,98786.13
2023-11-30T21:48:41.521Z,98785.19
2023-11-30T21:51:08.247Z,98784.78
2023-11-30T21:53:35.946Z,98778.34
2023-11-30T21:56:02.594Z,98773.09
2023-11-30T21:58:29.361Z,98777.91
2023-11-30T22:00:56.073Z,98777.97
2023-11-30T22:03:23.491Z,98780.53
2023-11-30T22:05:51.670Z,98782.34
2023-11-30T22:08:18.104Z,98784.09
2023-11-30T22:10:44.653Z,98788.25
2023-11-30T22:13:11.096Z,98786.78
2023-11-30T22:15:37.683Z,98780.34
2023-11-30T22:18:05.504Z,98784.97
2023-11-30T22:20:32.177Z,98794.06
2023-11-30T22:22:58.877Z,98801.84
2023-11-30T22:25:25.392Z,98798.34
2023-11-30T22:27:51.915Z,98795.94
2023-11-30T22:30:18.431Z,98801.66
2023-11-30T22:32:44.908Z,98785.44
2023-11-30T22:35:11.555Z,98777.78
2023-11-30T22:37:38.031Z,98787.31
2023-11-30T22:40:04.973Z,98788.91
2023-11-30T22:42:33.430Z,98779.47
2023-11-30T22:45:02.260Z,98765.25
2023-11-30T22:47:29.041Z,98754.53
2023-11-30T22:49:55.962Z,98740.41
2023-11-30T22:52:26.248Z,98749.00
2023-11-30T22:54:53.617Z,98749.06
2023-11-30T22:57:20.443Z,98751.94
2023-11-30T22:59:47.121Z,98756.19
2023-11-30T23:02:14.289Z,98757.06
2023-11-30T23:04:41.093Z,98756.00
2023-11-30T23:07:08.145Z,98755.94
2023-11-30T23:09:34.772Z,98776.19
2023-11-30T23:12:01.536Z,98786.22
2023-11-30T23:14:28.047Z,98801.47
2023-11-30T23:16:54.735Z,98805.56
2023-11-30T23:19:21.493Z,98817.66
2023-11-30T23:21:48.384Z,98835.63
2023-11-30T23:24:23.160Z,98826.91
2023-11-30T23:26:55.491Z,98829.03
2023-11-30T23:29:22.152Z,98816.69
2023-11-30T23:31:48.787Z,98803.00
2023-11-30T23:34:15.777Z,98807.34
2023-11-30T23:36:42.424Z,98814.91
2023-11-30T23:39:09.292Z,98807.94
2023-11-30T23:41:36.086Z,98813.94
2023-11-30T23:44:02.569Z,98809.63
2023-11-30T23:46:30.963Z,98794.53
2023-11-30T23:48:58.414Z,98787.56
2023-11-30T23:51:24.973Z,98767.41
2023-11-30T23:53:51.933Z,98772.28
2023-11-30T23:56:18.401Z,98778.69
2023-11-30T23:58:45.057Z,98803.22
